createdAt,value
2018-06-09T00:00:12.172Z,2.2
2018-06-09T00:00:24.568Z,2.2
2018-06-09T00:00:36.998Z,2.2
2018-06-09T00:00:49.506Z,2.2
2018-06-09T00:01:02.089Z,2.2
2018-06-09T00:01:14.496Z,2.13
2018-06-09T00:01:26.920Z,2.13
2018-06-09T00:01:39.329Z,2.13
2018-06-09T00:01:51.741Z,2.13
2018-06-09T00:02:04.141Z,2.13
2018-06-09T00:02:16.552Z,2.13
2018-06-09T00:02:29.063Z,2.13
2018-06-09T00:02:41.945Z,2.13
2018-06-09T00:02:54.635Z,2.13
2018-06-09T00:03:07.042Z,2.13
2018-06-09T00:03:19.468Z,2.13
2018-06-09T00:03:31.851Z,2.13
2018-06-09T00:03:44.245Z,2.13
2018-06-09T00:03:56.641Z,2.13
2018-06-09T00:04:09.070Z,2.13
2018-06-09T00:04:21.467Z,2.13
2018-06-09T00:04:33.858Z,2.13
2018-06-09T00:04:46.261Z,2.13
2018-06-09T00:04:58.671Z,2.13
2018-06-09T00:05:11.078Z,2.13
2018-06-09T00:05:23.471Z,2.13
2018-06-09T00:05:35.866Z,2.13
2018-06-09T00:05:48.480Z,2.13
2018-06-09T00:06:00.886Z,2.13
2018-06-09T00:06:13.291Z,2.13
2018-06-09T00:06:25.694Z,2.13
2018-06-09T00:06:38.101Z,2.13
2018-06-09T00:06:50.519Z,2.13
2018-06-09T00:07:02.967Z,2.13
2018-06-09T00:07:15.430Z,2.13
2018-06-09T00:07:27.814Z,2.13
2018-06-09T00:07:40.222Z,2.13
2018-06-09T00:07:52.615Z,2.13
2018-06-09T00:08:05.012Z,2.13
2018-06-09T00:08:17.405Z,2.13
2018-06-09T00:08:29.846Z,2.13
2018-06-09T00:08:42.228Z,2.13
2018-06-09T00:08:54.655Z,2.13
2018-06-09T00:09:07.057Z,2.13
2018-06-09T00:09:19.450Z,2.13
2018-06-09T00:09:31.869Z,2.13
2018-06-09T00:09:44.253Z,2.13
2018-06-09T00:09:56.646Z,2.13
2018-06-09T00:10:09.071Z,2.13
2018-06-09T00:10:21.469Z,2.13
2018-06-09T00:10:33.910Z,2.13
2018-06-09T00:10:46.309Z,2.13
2018-06-09T00:10:58.743Z,2.13
2018-06-09T00:11:11.199Z,1.77
2018-06-09T00:11:23.592Z,1.77
2018-06-09T00:11:35.994Z,1.77
2018-06-09T00:11:48.448Z,1.77
2018-06-09T00:12:00.847Z,1.77
2018-06-09T00:12:13.264Z,1.77
2018-06-09T00:12:25.693Z,1.77
2018-06-09T00:12:38.118Z,1.77
2018-06-09T00:12:50.508Z,1.77
2018-06-09T00:13:02.910Z,1.77
2018-06-09T00:13:15.323Z,1.77
2018-06-09T00:13:27.869Z,1.77
2018-06-09T00:13:40.312Z,1.77
2018-06-09T00:13:52.702Z,1.77
2018-06-09T00:14:05.115Z,1.77
2018-06-09T00:14:17.526Z,1.77
2018-06-09T00:14:29.940Z,1.77
2018-06-09T00:14:42.352Z,1.77
2018-06-09T00:14:54.749Z,1.77
2018-06-09T00:15:07.157Z,1.77
2018-06-09T00:15:19.570Z,1.77
2018-06-09T00:15:31.995Z,1.77
2018-06-09T00:15:44.403Z,1.77
2018-06-09T00:15:56.853Z,1.77
2018-06-09T00:16:09.278Z,1.77
2018-06-09T00:16:21.674Z,1.77
2018-06-09T00:16:34.126Z,1.77
2018-06-09T00:16:46.525Z,1.77
2018-06-09T00:16:59.281Z,1.77
2018-06-09T00:17:11.686Z,1.77
2018-06-09T00:17:24.069Z,1.77
2018-06-09T00:17:36.467Z,1.77
2018-06-09T00:17:49.076Z,1.77
2018-06-09T00:18:01.478Z,1.77
2018-06-09T00:18:13.899Z,1.77
2018-06-09T00:18:26.307Z,1.77
2018-06-09T00:18:38.721Z,1.77
2018-06-09T00:18:51.114Z,1.77
2018-06-09T00:19:03.486Z,1.77
2018-06-09T00:19:15.871Z,1.77
2018-06-09T00:19:28.339Z,1.77
2018-06-09T00:19:41.355Z,1.77
2018-06-09T00:19:53.754Z,1.77
2018-06-09T00:20:06.180Z,1.77
2018-06-09T00:20:18.616Z,1.77
2018-06-09T00:20:31.028Z,1.77
2018-06-09T00:20:43.432Z,1.77
2018-06-09T00:20:55.830Z,1.77
2018-06-09T00:21:08.245Z,1.77
2018-06-09T00:21:20.646Z,2.05
2018-06-09T00:21:33.057Z,2.05
2018-06-09T00:21:45.539Z,2.05
2018-06-09T00:21:57.966Z,2.05
2018-06-09T00:22:10.373Z,2.05
2018-06-09T00:22:22.762Z,2.05
2018-06-09T00:22:35.153Z,2.05
2018-06-09T00:22:47.587Z,2.05
2018-06-09T00:23:00.011Z,2.05
2018-06-09T00:23:12.417Z,2.05
2018-06-09T00:23:24.822Z,2.05
2018-06-09T00:23:37.217Z,2.05
2018-06-09T00:23:49.758Z,2.05
2018-06-09T00:24:02.158Z,2.05
2018-06-09T00:24:14.584Z,2.05
2018-06-09T00:24:27.059Z,2.05
2018-06-09T00:24:39.479Z,2.05
2018-06-09T00:24:51.898Z,2.05
2018-06-09T00:25:04.292Z,2.05
2018-06-09T00:25:16.697Z,2.05
2018-06-09T00:25:29.097Z,2.05
2018-06-09T00:25:41.512Z,2.05
2018-06-09T00:25:53.922Z,2.05
2018-06-09T00:26:06.326Z,2.05
2018-06-09T00:26:18.746Z,2.05
2018-06-09T00:26:31.204Z,2.05
2018-06-09T00:26:43.678Z,2.05
2018-06-09T00:26:56.099Z,2.05
2018-06-09T00:27:08.499Z,2.05
2018-06-09T00:27:20.898Z,2.05
2018-06-09T00:27:33.379Z,2.05
2018-06-09T00:27:45.798Z,2.05
2018-06-09T00:27:58.248Z,2.05
2018-06-09T00:28:10.665Z,2.05
2018-06-09T00:28:23.095Z,2.05
2018-06-09T00:28:35.532Z,2.05
2018-06-09T00:28:47.951Z,2.05
2018-06-09T00:29:00.368Z,2.05
2018-06-09T00:29:12.808Z,2.05
2018-06-09T00:29:25.443Z,2.05
2018-06-09T00:29:37.852Z,2.05
2018-06-09T00:29:50.258Z,2.05
2018-06-09T00:30:02.699Z,2.05
2018-06-09T00:30:15.087Z,2.05
2018-06-09T00:30:27.491Z,2.05
2018-06-09T00:30:39.899Z,2.05
2018-06-09T00:30:52.319Z,2.05
2018-06-09T00:31:04.735Z,2.05
2018-06-09T00:31:17.150Z,1.98
2018-06-09T00:31:29.581Z,1.98
2018-06-09T00:31:41.985Z,1.98
2018-06-09T00:31:54.401Z,1.98
2018-06-09T00:32:06.804Z,1.98
2018-06-09T00:32:19.235Z,1.98
2018-06-09T00:32:31.642Z,1.98
2018-06-09T00:32:44.037Z,1.98
2018-06-09T00:32:56.445Z,1.98
2018-06-09T00:33:08.855Z,1.98
2018-06-09T00:33:21.278Z,1.98
2018-06-09T00:33:33.691Z,1.98
2018-06-09T00:33:46.116Z,1.98
2018-06-09T00:33:58.515Z,1.98
2018-06-09T00:34:10.948Z,1.98
2018-06-09T00:34:23.401Z,1.98
2018-06-09T00:34:35.819Z,1.98
2018-06-09T00:34:48.264Z,1.98
2018-06-09T00:35:00.668Z,1.98
2018-06-09T00:35:13.056Z,1.98
2018-06-09T00:35:25.497Z,1.98
2018-06-09T00:35:37.880Z,1.98
2018-06-09T00:35:50.457Z,1.98
2018-06-09T00:36:03.281Z,1.98
2018-06-09T00:36:15.679Z,1.98
2018-06-09T00:36:28.067Z,1.98
2018-06-09T00:36:40.481Z,1.98
2018-06-09T00:36:52.879Z,1.98
2018-06-09T00:37:05.286Z,1.98
2018-06-09T00:37:17.686Z,1.98
2018-06-09T00:37:30.106Z,1.98
2018-06-09T00:37:42.560Z,1.98
2018-06-09T00:37:54.943Z,1.98
2018-06-09T00:38:07.371Z,1.98
2018-06-09T00:38:19.823Z,1.98
2018-06-09T00:38:32.224Z,1.98
2018-06-09T00:38:44.618Z,1.98
2018-06-09T00:38:57.018Z,1.98
2018-06-09T00:39:09.429Z,1.98
2018-06-09T00:39:21.873Z,1.98
2018-06-09T00:39:34.269Z,1.98
2018-06-09T00:39:46.681Z,1.98
2018-06-09T00:39:59.078Z,1.98
2018-06-09T00:40:11.495Z,1.98
2018-06-09T00:40:23.896Z,1.98
2018-06-09T00:40:36.301Z,1.98
2018-06-09T00:40:48.707Z,1.98
2018-06-09T00:41:01.114Z,1.98
2018-06-09T00:41:13.508Z,3.05
2018-06-09T00:41:25.917Z,3.05
2018-06-09T00:41:38.309Z,3.05
2018-06-09T00:41:50.742Z,3.05
2018-06-09T00:42:03.137Z,3.05
2018-06-09T00:42:15.536Z,3.05
2018-06-09T00:42:27.934Z,3.05
2018-06-09T00:42:40.351Z,3.05
2018-06-09T00:42:52.745Z,3.05
2018-06-09T00:43:05.149Z,3.05
2018-06-09T00:43:17.550Z,3.05
2018-06-09T00:43:29.954Z,3.05
2018-06-09T00:43:42.375Z,3.05
2018-06-09T00:43:54.779Z,3.05
2018-06-09T00:44:07.183Z,3.05
2018-06-09T00:44:19.683Z,3.05
2018-06-09T00:44:32.123Z,3.05
2018-06-09T00:44:44.521Z,3.05
2018-06-09T00:44:56.953Z,3.05
2018-06-09T00:45:09.392Z,3.05
2018-06-09T00:45:21.783Z,3.05
2018-06-09T00:45:34.174Z,3.05
2018-06-09T00:45:46.557Z,3.05
2018-06-09T00:45:59.128Z,3.05
2018-06-09T00:46:11.523Z,3.05
2018-06-09T00:46:23.951Z,3.05
2018-06-09T00:46:36.345Z,3.05
2018-06-09T00:46:48.736Z,3.05
2018-06-09T00:47:01.151Z,3.05
2018-06-09T00:47:13.574Z,3.05
2018-06-09T00:47:26.061Z,3.05
2018-06-09T00:47:38.522Z,3.05
2018-06-09T00:47:50.916Z,3.05
2018-06-09T00:48:03.326Z,3.05
2018-06-09T00:48:15.719Z,3.05
2018-06-09T00:48:28.414Z,3.05
2018-06-09T00:48:40.845Z,3.05
2018-06-09T00:48:53.243Z,3.05
2018-06-09T00:49:05.658Z,3.05
2018-06-09T00:49:18.038Z,3.05
2018-06-09T00:49:30.449Z,3.05
2018-06-09T00:49:42.920Z,3.05
2018-06-09T00:49:55.312Z,3.05
2018-06-09T00:50:07.715Z,3.05
2018-06-09T00:50:20.615Z,3.05
2018-06-09T00:50:33.017Z,3.05
2018-06-09T00:50:45.410Z,3.05
2018-06-09T00:50:57.822Z,3.05
2018-06-09T00:51:10.240Z,3.05
2018-06-09T00:51:22.852Z,1.98
2018-06-09T00:51:35.509Z,1.98
2018-06-09T00:51:47.916Z,1.98
2018-06-09T00:52:00.321Z,1.98
2018-06-09T00:52:12.707Z,1.98
2018-06-09T00:52:25.120Z,1.98
2018-06-09T00:52:37.523Z,1.98
2018-06-09T00:52:49.918Z,1.98
2018-06-09T00:53:02.334Z,1.98
2018-06-09T00:53:14.760Z,1.98
2018-06-09T00:53:27.188Z,1.98
2018-06-09T00:53:39.613Z,1.98
2018-06-09T00:53:52.003Z,1.98
2018-06-09T00:54:04.418Z,1.98
2018-06-09T00:54:16.823Z,1.98
2018-06-09T00:54:29.212Z,1.98
2018-06-09T00:54:41.645Z,1.98
2018-06-09T00:54:54.060Z,1.98
2018-06-09T00:55:06.459Z,1.98
2018-06-09T00:55:18.877Z,1.98
2018-06-09T00:55:31.284Z,1.98
2018-06-09T00:55:43.687Z,1.98
2018-06-09T00:55:56.092Z,1.98
2018-06-09T00:56:08.489Z,1.98
2018-06-09T00:56:20.909Z,1.98
2018-06-09T00:56:33.360Z,1.98
2018-06-09T00:56:45.833Z,1.98
2018-06-09T00:56:58.244Z,1.98
2018-06-09T00:57:10.647Z,1.98
2018-06-09T00:57:23.063Z,1.98
2018-06-09T00:57:35.446Z,1.98
2018-06-09T00:57:47.865Z,1.98
2018-06-09T00:58:00.284Z,1.98
2018-06-09T00:58:12.673Z,1.98
2018-06-09T00:58:25.066Z,1.98
2018-06-09T00:58:37.471Z,1.98
2018-06-09T00:58:49.909Z,1.98
2018-06-09T00:59:02.322Z,1.98
2018-06-09T00:59:14.732Z,1.98
2018-06-09T00:59:27.184Z,1.98
2018-06-09T00:59:39.601Z,1.98
2018-06-09T00:59:52.027Z,1.98
2018-06-09T01:00:04.466Z,1.98
2018-06-09T01:00:16.913Z,1.98
2018-06-09T01:00:29.323Z,1.98
2018-06-09T01:00:41.748Z,1.98
2018-06-09T01:00:54.328Z,1.98
2018-06-09T01:01:06.728Z,1.98
2018-06-09T01:01:19.158Z,2.02
2018-06-09T01:01:31.611Z,2.02
2018-06-09T01:01:44.033Z,2.02
2018-06-09T01:01:56.484Z,2.02
2018-06-09T01:02:08.902Z,2.02
2018-06-09T01:02:21.333Z,2.02
2018-06-09T01:02:33.879Z,2.02
2018-06-09T01:02:46.426Z,2.02
2018-06-09T01:02:58.828Z,2.02
2018-06-09T01:03:11.281Z,2.02
2018-06-09T01:03:23.669Z,2.02
2018-06-09T01:03:36.071Z,2.02
2018-06-09T01:03:48.463Z,2.02
2018-06-09T01:04:00.848Z,2.02
2018-06-09T01:04:13.300Z,2.02
2018-06-09T01:04:25.684Z,2.02
2018-06-09T01:04:38.071Z,2.02
2018-06-09T01:04:50.481Z,2.02
2018-06-09T01:05:02.884Z,2.02
2018-06-09T01:05:15.317Z,2.02
2018-06-09T01:05:27.764Z,2.02
2018-06-09T01:05:40.166Z,2.02
2018-06-09T01:05:52.542Z,2.02
2018-06-09T01:06:04.940Z,2.02
2018-06-09T01:06:17.333Z,2.02
2018-06-09T01:06:29.758Z,2.02
2018-06-09T01:06:42.141Z,2.02
2018-06-09T01:06:54.544Z,2.02
2018-06-09T01:07:06.966Z,2.02
2018-06-09T01:07:19.387Z,2.02
2018-06-09T01:07:31.794Z,2.02
2018-06-09T01:07:44.205Z,2.02
2018-06-09T01:07:56.684Z,2.02
2018-06-09T01:08:09.091Z,2.02
2018-06-09T01:08:21.506Z,2.02
2018-06-09T01:08:33.905Z,2.02
2018-06-09T01:08:46.301Z,2.02
2018-06-09T01:08:58.686Z,2.02
2018-06-09T01:09:11.110Z,2.02
2018-06-09T01:09:23.508Z,2.02
2018-06-09T01:09:35.919Z,2.02
2018-06-09T01:09:48.319Z,2.02
2018-06-09T01:10:00.720Z,2.02
2018-06-09T01:10:13.102Z,2.02
2018-06-09T01:10:25.490Z,2.02
2018-06-09T01:10:37.904Z,2.02
2018-06-09T01:10:50.291Z,2.02
2018-06-09T01:11:02.722Z,2.02
2018-06-09T01:11:15.137Z,2.05
2018-06-09T01:11:27.529Z,2.05
2018-06-09T01:11:39.956Z,2.05
2018-06-09T01:11:52.407Z,2.05
2018-06-09T01:12:04.827Z,2.05
2018-06-09T01:12:17.237Z,2.05
2018-06-09T01:12:29.637Z,2.05
2018-06-09T01:12:42.113Z,2.05
2018-06-09T01:12:54.534Z,2.05
2018-06-09T01:13:06.942Z,2.05
2018-06-09T01:13:19.353Z,2.05
2018-06-09T01:13:31.749Z,2.05
2018-06-09T01:13:44.140Z,2.05
2018-06-09T01:13:56.526Z,2.05
2018-06-09T01:14:09.036Z,2.05
2018-06-09T01:14:21.441Z,2.05
2018-06-09T01:14:33.886Z,2.05
2018-06-09T01:14:46.304Z,2.05
2018-06-09T01:14:58.697Z,2.05
2018-06-09T01:15:11.085Z,2.05
2018-06-09T01:15:23.491Z,2.05
2018-06-09T01:15:35.893Z,2.05
2018-06-09T01:15:48.280Z,2.05
2018-06-09T01:16:00.695Z,2.05
2018-06-09T01:16:13.129Z,2.05
2018-06-09T01:16:25.546Z,2.05
2018-06-09T01:16:37.976Z,2.05
2018-06-09T01:16:50.369Z,2.05
2018-06-09T01:17:03.110Z,2.05
2018-06-09T01:17:15.493Z,2.05
2018-06-09T01:17:27.888Z,2.05
2018-06-09T01:17:40.310Z,2.05
2018-06-09T01:17:52.833Z,2.05
2018-06-09T01:18:05.243Z,2.05
2018-06-09T01:18:17.674Z,2.05
2018-06-09T01:18:30.296Z,2.05
2018-06-09T01:18:42.714Z,2.05
2018-06-09T01:18:55.132Z,2.05
2018-06-09T01:19:07.587Z,2.05
2018-06-09T01:19:20.018Z,2.05
2018-06-09T01:19:32.430Z,2.05
2018-06-09T01:19:44.853Z,2.05
2018-06-09T01:19:57.247Z,2.05
2018-06-09T01:20:09.646Z,2.05
2018-06-09T01:20:22.063Z,2.05
2018-06-09T01:20:34.499Z,2.05
2018-06-09T01:20:46.908Z,2.05
2018-06-09T01:20:59.295Z,2.05
2018-06-09T01:21:11.709Z,2.05
2018-06-09T01:21:24.157Z,2.29
2018-06-09T01:21:36.567Z,2.29
2018-06-09T01:21:48.966Z,2.29
2018-06-09T01:22:01.390Z,2.29
2018-06-09T01:22:13.808Z,2.29
2018-06-09T01:22:26.224Z,2.29
2018-06-09T01:22:38.612Z,2.29
2018-06-09T01:22:51.076Z,2.29
2018-06-09T01:23:03.494Z,2.29
2018-06-09T01:23:15.899Z,2.29
2018-06-09T01:23:28.360Z,2.29
2018-06-09T01:23:40.778Z,2.29
2018-06-09T01:23:53.212Z,2.29
2018-06-09T01:24:05.865Z,2.29
2018-06-09T01:24:18.297Z,2.29
2018-06-09T01:24:30.714Z,2.29
2018-06-09T01:24:43.115Z,2.29
2018-06-09T01:24:55.514Z,2.29
2018-06-09T01:25:07.941Z,2.29
2018-06-09T01:25:20.334Z,2.29
2018-06-09T01:25:32.726Z,2.29
2018-06-09T01:25:45.141Z,2.29
2018-06-09T01:25:57.540Z,2.29
2018-06-09T01:26:09.946Z,2.29
2018-06-09T01:26:22.395Z,2.29
2018-06-09T01:26:34.812Z,2.29
2018-06-09T01:26:47.228Z,2.29
2018-06-09T01:26:59.651Z,2.29
2018-06-09T01:27:12.052Z,2.29
2018-06-09T01:27:24.448Z,2.29
2018-06-09T01:27:36.856Z,2.29
2018-06-09T01:27:49.329Z,2.29
2018-06-09T01:28:01.739Z,2.29
2018-06-09T01:28:14.201Z,2.29
2018-06-09T01:28:26.612Z,2.29
2018-06-09T01:28:39.045Z,2.29
2018-06-09T01:28:51.482Z,2.29
2018-06-09T01:29:03.927Z,2.29
2018-06-09T01:29:16.341Z,2.29
2018-06-09T01:29:28.725Z,2.29
2018-06-09T01:29:41.154Z,2.29
2018-06-09T01:29:53.581Z,2.29
2018-06-09T01:30:05.982Z,2.29
2018-06-09T01:30:18.368Z,2.29
2018-06-09T01:30:30.780Z,2.29
2018-06-09T01:30:43.203Z,2.29
2018-06-09T01:30:55.626Z,2.29
2018-06-09T01:31:08.019Z,2.29
2018-06-09T01:31:20.435Z,2.24
2018-06-09T01:31:32.818Z,2.24
2018-06-09T01:31:45.215Z,2.24
2018-06-09T01:31:57.613Z,2.24
2018-06-09T01:32:10.012Z,2.24
2018-06-09T01:32:22.412Z,2.24
2018-06-09T01:32:34.814Z,2.24
2018-06-09T01:32:47.286Z,2.24
2018-06-09T01:32:59.728Z,2.24
2018-06-09T01:33:12.134Z,2.24
2018-06-09T01:33:24.535Z,2.24
2018-06-09T01:33:36.945Z,2.24
2018-06-09T01:33:49.356Z,2.24
2018-06-09T01:34:01.745Z,2.24
2018-06-09T01:34:14.170Z,2.24
2018-06-09T01:34:26.562Z,2.24
2018-06-09T01:34:39.009Z,2.24
2018-06-09T01:34:51.416Z,2.24
2018-06-09T01:35:03.827Z,2.24
2018-06-09T01:35:16.249Z,2.24
2018-06-09T01:35:28.731Z,2.24
2018-06-09T01:35:41.148Z,2.24
2018-06-09T01:35:53.702Z,2.24
2018-06-09T01:36:06.121Z,2.24
2018-06-09T01:36:18.529Z,2.24
2018-06-09T01:36:30.927Z,2.24
2018-06-09T01:36:43.338Z,2.24
2018-06-09T01:36:55.748Z,2.24
2018-06-09T01:37:08.145Z,2.24
2018-06-09T01:37:20.616Z,2.24
2018-06-09T01:37:33.024Z,2.24
2018-06-09T01:37:45.418Z,2.24
2018-06-09T01:37:57.836Z,2.24
2018-06-09T01:38:10.247Z,2.24
2018-06-09T01:38:22.649Z,2.24
2018-06-09T01:38:35.118Z,2.24
2018-06-09T01:38:47.526Z,2.24
2018-06-09T01:38:59.917Z,2.24
2018-06-09T01:39:12.322Z,2.24
2018-06-09T01:39:24.722Z,2.24
2018-06-09T01:39:37.151Z,2.24
2018-06-09T01:39:49.561Z,2.24
2018-06-09T01:40:01.969Z,2.24
2018-06-09T01:40:14.384Z,2.24
2018-06-09T01:40:26.804Z,2.24
2018-06-09T01:40:39.204Z,2.24
2018-06-09T01:40:51.659Z,2.24
2018-06-09T01:41:04.044Z,2.24
2018-06-09T01:41:16.440Z,2.19
2018-06-09T01:41:28.879Z,2.19
2018-06-09T01:41:41.284Z,2.19
2018-06-09T01:41:53.685Z,2.19
2018-06-09T01:42:06.110Z,2.19
2018-06-09T01:42:18.546Z,2.19
2018-06-09T01:42:30.940Z,2.19
2018-06-09T01:42:43.349Z,2.19
2018-06-09T01:42:55.779Z,2.19
2018-06-09T01:43:08.204Z,2.19
2018-06-09T01:43:20.615Z,2.19
2018-06-09T01:43:33.020Z,2.19
2018-06-09T01:43:45.420Z,2.19
2018-06-09T01:43:57.841Z,2.19
2018-06-09T01:44:10.257Z,2.19
2018-06-09T01:44:22.663Z,2.19
2018-06-09T01:44:35.077Z,2.19
2018-06-09T01:44:47.536Z,2.19
2018-06-09T01:44:59.968Z,2.19
2018-06-09T01:45:12.363Z,2.19
2018-06-09T01:45:24.745Z,2.19
2018-06-09T01:45:37.133Z,2.19
2018-06-09T01:45:49.587Z,2.19
2018-06-09T01:46:02.200Z,2.19
2018-06-09T01:46:14.604Z,2.19
2018-06-09T01:46:26.989Z,2.19
2018-06-09T01:46:39.386Z,2.19
2018-06-09T01:46:51.819Z,2.19
2018-06-09T01:47:04.210Z,2.19
2018-06-09T01:47:16.641Z,2.19
2018-06-09T01:47:29.034Z,2.19
2018-06-09T01:47:41.435Z,2.19
2018-06-09T01:47:53.872Z,2.19
2018-06-09T01:48:06.286Z,2.19
2018-06-09T01:48:18.681Z,2.19
2018-06-09T01:48:31.220Z,2.19
2018-06-09T01:48:43.636Z,2.19
2018-06-09T01:48:56.057Z,2.19
2018-06-09T01:49:08.470Z,2.19
2018-06-09T01:49:20.907Z,2.19
2018-06-09T01:49:33.348Z,2.19
2018-06-09T01:49:45.818Z,2.19
2018-06-09T01:49:58.212Z,2.19
2018-06-09T01:50:10.637Z,2.19
2018-06-09T01:50:23.048Z,2.19
2018-06-09T01:50:35.440Z,2.19
2018-06-09T01:50:47.832Z,2.19
2018-06-09T01:51:00.242Z,2.19
2018-06-09T01:51:12.636Z,2.19
2018-06-09T01:51:25.206Z,2.17
2018-06-09T01:51:38.190Z,2.17
2018-06-09T01:51:50.642Z,2.17
2018-06-09T01:52:03.057Z,2.17
2018-06-09T01:52:15.475Z,2.17
2018-06-09T01:52:27.864Z,2.17
2018-06-09T01:52:40.274Z,2.17
2018-06-09T01:52:52.677Z,2.17
2018-06-09T01:53:05.097Z,2.17
2018-06-09T01:53:17.513Z,2.17
2018-06-09T01:53:29.949Z,2.17
2018-06-09T01:53:42.341Z,2.17
2018-06-09T01:53:54.753Z,2.17
2018-06-09T01:54:07.185Z,2.17
2018-06-09T01:54:19.585Z,2.17
2018-06-09T01:54:31.980Z,2.17
2018-06-09T01:54:44.372Z,2.17
2018-06-09T01:54:56.796Z,2.17
2018-06-09T01:55:09.190Z,2.17
2018-06-09T01:55:21.578Z,2.17
2018-06-09T01:55:33.986Z,2.17
2018-06-09T01:55:46.359Z,2.17
2018-06-09T01:55:58.753Z,2.17
2018-06-09T01:56:11.210Z,2.17
2018-06-09T01:56:23.614Z,2.17
2018-06-09T01:56:36.014Z,2.17
2018-06-09T01:56:48.409Z,2.17
2018-06-09T01:57:00.837Z,2.17
2018-06-09T01:57:13.231Z,2.17
2018-06-09T01:57:25.673Z,2.17
2018-06-09T01:57:38.089Z,2.17
2018-06-09T01:57:50.508Z,2.17
2018-06-09T01:58:02.907Z,2.17
2018-06-09T01:58:15.328Z,2.17
2018-06-09T01:58:27.737Z,2.17
2018-06-09T01:58:40.159Z,2.17
2018-06-09T01:58:52.544Z,2.17
2018-06-09T01:59:04.941Z,2.17
2018-06-09T01:59:17.328Z,2.17
2018-06-09T01:59:29.728Z,2.17
2018-06-09T01:59:42.145Z,2.17
2018-06-09T01:59:54.553Z,2.17
2018-06-09T02:00:06.954Z,2.17
2018-06-09T02:00:19.379Z,2.17
2018-06-09T02:00:31.796Z,2.17
2018-06-09T02:00:44.220Z,2.17
2018-06-09T02:00:56.766Z,2.17
2018-06-09T02:01:09.199Z,2.17
2018-06-09T02:01:21.622Z,2.33
2018-06-09T02:01:34.048Z,2.33
2018-06-09T02:01:46.461Z,2.33
2018-06-09T02:01:58.898Z,2.33
2018-06-09T02:02:11.332Z,2.33
2018-06-09T02:02:23.887Z,2.33
2018-06-09T02:02:36.323Z,2.33
2018-06-09T02:02:48.759Z,2.33
2018-06-09T02:03:01.170Z,2.33
2018-06-09T02:03:13.559Z,2.33
2018-06-09T02:03:25.957Z,2.33
2018-06-09T02:03:38.331Z,2.33
2018-06-09T02:03:50.732Z,2.33
2018-06-09T02:04:03.138Z,2.33
2018-06-09T02:04:15.547Z,2.33
2018-06-09T02:04:27.938Z,2.33
2018-06-09T02:04:40.326Z,2.33
2018-06-09T02:04:52.741Z,2.33
2018-06-09T02:05:05.225Z,2.33
2018-06-09T02:05:17.684Z,2.33
2018-06-09T02:05:30.112Z,2.33
2018-06-09T02:05:42.523Z,2.33
2018-06-09T02:05:54.918Z,2.33
2018-06-09T02:06:07.334Z,2.33
2018-06-09T02:06:19.754Z,2.33
2018-06-09T02:06:32.176Z,2.33
2018-06-09T02:06:44.585Z,2.33
2018-06-09T02:06:56.996Z,2.33
2018-06-09T02:07:09.394Z,2.33
2018-06-09T02:07:21.801Z,2.33
2018-06-09T02:07:34.210Z,2.33
2018-06-09T02:07:46.643Z,2.33
2018-06-09T02:07:59.089Z,2.33
2018-06-09T02:08:11.484Z,2.33
2018-06-09T02:08:23.896Z,2.33
2018-06-09T02:08:36.312Z,2.33
2018-06-09T02:08:48.721Z,2.33
2018-06-09T02:09:01.140Z,2.33
2018-06-09T02:09:13.560Z,2.33
2018-06-09T02:09:25.972Z,2.33
2018-06-09T02:09:38.384Z,2.33
2018-06-09T02:09:50.776Z,2.33
2018-06-09T02:10:03.185Z,2.33
2018-06-09T02:10:15.582Z,2.33
2018-06-09T02:10:27.980Z,2.33
2018-06-09T02:10:40.385Z,2.33
2018-06-09T02:10:52.785Z,2.33
2018-06-09T02:11:05.203Z,2.33
2018-06-09T02:11:17.603Z,2.19
2018-06-09T02:11:30.016Z,2.19
2018-06-09T02:11:42.405Z,2.19
2018-06-09T02:11:54.802Z,2.19
2018-06-09T02:12:07.202Z,2.19
2018-06-09T02:12:19.590Z,2.19
2018-06-09T02:12:32.043Z,2.19
2018-06-09T02:12:44.474Z,2.19
2018-06-09T02:12:56.862Z,2.19
2018-06-09T02:13:09.268Z,2.19
2018-06-09T02:13:21.668Z,2.19
2018-06-09T02:13:34.056Z,2.19
2018-06-09T02:13:46.466Z,2.19
2018-06-09T02:13:58.871Z,2.19
2018-06-09T02:14:11.280Z,2.19
2018-06-09T02:14:23.706Z,2.19
2018-06-09T02:14:36.112Z,2.19
2018-06-09T02:14:48.672Z,2.19
2018-06-09T02:15:01.057Z,2.19
2018-06-09T02:15:13.444Z,2.19
2018-06-09T02:15:25.831Z,2.19
2018-06-09T02:15:38.215Z,2.19
2018-06-09T02:15:50.632Z,2.19
2018-06-09T02:16:03.041Z,2.19
2018-06-09T02:16:15.458Z,2.19
2018-06-09T02:16:27.878Z,2.19
2018-06-09T02:16:40.297Z,2.19
2018-06-09T02:16:52.709Z,2.19
2018-06-09T02:17:05.327Z,2.19
2018-06-09T02:17:17.734Z,2.19
2018-06-09T02:17:30.143Z,2.19
2018-06-09T02:17:42.547Z,2.19
2018-06-09T02:17:55.144Z,2.19
2018-06-09T02:18:07.552Z,2.19
2018-06-09T02:18:19.952Z,2.19
2018-06-09T02:18:32.355Z,2.19
2018-06-09T02:18:44.761Z,2.19
2018-06-09T02:18:57.175Z,2.19
2018-06-09T02:19:09.555Z,2.19
2018-06-09T02:19:21.941Z,2.19
2018-06-09T02:19:34.347Z,2.19
2018-06-09T02:19:46.916Z,2.19
2018-06-09T02:19:59.314Z,2.19
2018-06-09T02:20:11.710Z,2.19
2018-06-09T02:20:24.111Z,2.19
2018-06-09T02:20:36.505Z,2.19
2018-06-09T02:20:48.895Z,2.19
2018-06-09T02:21:01.298Z,2.19
2018-06-09T02:21:13.686Z,2.19
2018-06-09T02:21:26.086Z,2.12
2018-06-09T02:21:38.489Z,2.12
2018-06-09T02:21:50.884Z,2.12
2018-06-09T02:22:03.337Z,2.12
2018-06-09T02:22:15.728Z,2.12
2018-06-09T02:22:28.146Z,2.12
2018-06-09T02:22:40.546Z,2.12
2018-06-09T02:22:52.999Z,2.12
2018-06-09T02:23:05.391Z,2.12
2018-06-09T02:23:17.786Z,2.12
2018-06-09T02:23:30.219Z,2.12
2018-06-09T02:23:42.620Z,2.12
2018-06-09T02:23:55.036Z,2.12
2018-06-09T02:24:07.442Z,2.12
2018-06-09T02:24:19.857Z,2.12
2018-06-09T02:24:32.274Z,2.12
2018-06-09T02:24:44.693Z,2.12
2018-06-09T02:24:57.260Z,2.12
2018-06-09T02:25:09.648Z,2.12
2018-06-09T02:25:22.048Z,2.12
2018-06-09T02:25:34.453Z,2.12
2018-06-09T02:25:46.854Z,2.12
2018-06-09T02:25:59.286Z,2.12
2018-06-09T02:26:11.690Z,2.12
2018-06-09T02:26:24.114Z,2.12
2018-06-09T02:26:36.502Z,2.12
2018-06-09T02:26:48.907Z,2.12
2018-06-09T02:27:01.314Z,2.12
2018-06-09T02:27:13.727Z,2.12
2018-06-09T02:27:26.125Z,2.12
2018-06-09T02:27:38.553Z,2.12
2018-06-09T02:27:50.987Z,2.12
2018-06-09T02:28:03.401Z,2.12
2018-06-09T02:28:15.799Z,2.12
2018-06-09T02:28:28.253Z,2.12
2018-06-09T02:28:40.657Z,2.12
2018-06-09T02:28:53.060Z,2.12
2018-06-09T02:29:05.454Z,2.12
2018-06-09T02:29:17.902Z,2.12
2018-06-09T02:29:30.340Z,2.12
2018-06-09T02:29:42.743Z,2.12
2018-06-09T02:29:55.177Z,2.12
2018-06-09T02:30:07.653Z,2.12
2018-06-09T02:30:20.063Z,2.12
2018-06-09T02:30:32.518Z,2.12
2018-06-09T02:30:44.976Z,2.12
2018-06-09T02:30:57.437Z,2.12
2018-06-09T02:31:09.924Z,2.12
2018-06-09T02:31:22.384Z,2.12
2018-06-09T02:31:34.826Z,2.12
2018-06-09T02:31:47.276Z,2.12
2018-06-09T02:31:59.743Z,2.12
2018-06-09T02:32:12.196Z,2.12
2018-06-09T02:32:24.614Z,2.12
2018-06-09T02:32:37.039Z,2.12
2018-06-09T02:32:49.481Z,2.12
2018-06-09T02:33:01.953Z,2.12
2018-06-09T02:33:14.364Z,2.12
2018-06-09T02:33:26.769Z,2.12
2018-06-09T02:33:39.226Z,2.12
2018-06-09T02:33:51.638Z,2.12
2018-06-09T02:34:04.101Z,2.12
2018-06-09T02:34:16.549Z,2.12
2018-06-09T02:34:29.063Z,2.12
2018-06-09T02:34:41.545Z,2.12
2018-06-09T02:34:53.985Z,2.12
2018-06-09T02:35:06.418Z,2.12
2018-06-09T02:35:18.852Z,2.12
2018-06-09T02:35:31.311Z,2.12
2018-06-09T02:35:43.725Z,2.12
2018-06-09T02:35:56.180Z,2.12
2018-06-09T02:36:08.693Z,2.12
2018-06-09T02:36:21.137Z,2.12
2018-06-09T02:36:33.564Z,2.12
2018-06-09T02:36:46.041Z,2.12
2018-06-09T02:36:58.503Z,2.12
2018-06-09T02:37:10.953Z,2.12
2018-06-09T02:37:23.399Z,2.12
2018-06-09T02:37:35.832Z,2.12
2018-06-09T02:37:48.273Z,2.12
2018-06-09T02:38:00.703Z,2.12
2018-06-09T02:38:13.110Z,2.12
2018-06-09T02:38:25.530Z,2.12
2018-06-09T02:38:37.940Z,2.12
2018-06-09T02:38:50.357Z,2.12
2018-06-09T02:39:02.771Z,2.12
2018-06-09T02:39:15.184Z,2.12
2018-06-09T02:39:27.666Z,2.12
2018-06-09T02:39:40.099Z,2.12
2018-06-09T02:39:52.505Z,2.12
2018-06-09T02:40:04.926Z,2.12
2018-06-09T02:40:17.359Z,2.12
2018-06-09T02:40:29.844Z,2.12
2018-06-09T02:40:42.277Z,2.12
2018-06-09T02:40:54.720Z,2.12
2018-06-09T02:41:07.182Z,2.12
2018-06-09T02:41:19.597Z,2.25
2018-06-09T02:41:32.069Z,2.25
2018-06-09T02:41:44.497Z,2.25
2018-06-09T02:41:56.925Z,2.25
2018-06-09T02:42:09.339Z,2.25
2018-06-09T02:42:21.807Z,2.25
2018-06-09T02:42:34.236Z,2.25
2018-06-09T02:42:46.660Z,2.25
2018-06-09T02:42:59.070Z,2.25
2018-06-09T02:43:11.511Z,2.25
2018-06-09T02:43:23.921Z,2.25
2018-06-09T02:43:36.345Z,2.25
2018-06-09T02:43:48.797Z,2.25
2018-06-09T02:44:01.223Z,2.25
2018-06-09T02:44:13.690Z,2.25
2018-06-09T02:44:26.123Z,2.25
2018-06-09T02:44:38.572Z,2.25
2018-06-09T02:44:50.991Z,2.25
2018-06-09T02:45:03.424Z,2.25
2018-06-09T02:45:15.882Z,2.25
2018-06-09T02:45:28.301Z,2.25